createdAt,value
2018-06-24T00:01:22.985Z,90.70
2018-06-24T00:03:50.609Z,90.90
2018-06-24T00:06:18.202Z,90.90
2018-06-24T00:08:52.964Z,91.10
2018-06-24T00:11:20.526Z,91.10
2018-06-24T00:13:48.110Z,91.10
2018-06-24T00:16:15.786Z,90.90
2018-06-24T00:21:11.463Z,91.00
2018-06-24T00:23:39.033Z,91.10
2018-06-24T00:26:06.930Z,91.10
2018-06-24T00:28:34.782Z,91.10
2018-06-24T00:31:02.369Z,91.40
2018-06-24T00:33:30.159Z,91.20
2018-06-24T00:35:57.785Z,91.20
2018-06-24T00:38:25.377Z,91.10
2018-06-24T00:40:52.949Z,91.10
2018-06-24T00:43:20.948Z,91.30
2018-06-24T00:45:48.573Z,91.30
2018-06-24T00:48:16.155Z,91.30
2018-06-24T00:50:43.766Z,91.50
2018-06-24T00:53:11.989Z,91.50
2018-06-24T00:55:39.562Z,91.50
2018-06-24T00:58:07.345Z,91.50
2018-06-24T01:00:35.299Z,91.70
2018-06-24T01:03:02.881Z,91.70
2018-06-24T01:05:31.213Z,91.80
2018-06-24T01:10:26.584Z,92.00
2018-06-24T01:12:54.207Z,91.80
2018-06-24T01:15:21.845Z,91.80
2018-06-24T01:17:49.422Z,91.70
2018-06-24T01:20:17.665Z,92.00
2018-06-24T01:22:45.257Z,92.00
2018-06-24T01:25:12.801Z,92.20
2018-06-24T01:27:40.397Z,92.00
2018-06-24T01:30:08.392Z,92.00
2018-06-24T01:32:36.372Z,92.00
2018-06-24T01:35:04.047Z,92.00
2018-06-24T01:37:31.677Z,92.00
2018-06-24T01:39:59.338Z,91.90
2018-06-24T01:42:26.946Z,91.90
2018-06-24T01:44:54.661Z,92.20
2018-06-24T01:47:22.322Z,92.10
2018-06-24T01:49:49.892Z,92.10
2018-06-24T01:52:17.528Z,92.00
2018-06-24T01:54:45.129Z,92.20
2018-06-24T01:57:12.728Z,92.80
2018-06-24T01:59:40.297Z,92.70
2018-06-24T02:02:08.888Z,93.20
2018-06-24T02:04:36.518Z,93.70
2018-06-24T02:07:04.189Z,93.80
2018-06-24T02:09:31.765Z,93.20
2018-06-24T02:11:59.385Z,93.80
2018-06-24T02:14:26.997Z,93.90
2018-06-24T02:16:54.620Z,93.90
2018-06-24T02:19:22.221Z,93.80
2018-06-24T02:21:49.817Z,94.70
2018-06-24T02:24:17.409Z,94.80
2018-06-24T02:26:45.001Z,94.30
2018-06-24T02:29:12.598Z,94.20
2018-06-24T02:31:40.152Z,94.70
2018-06-24T02:34:07.830Z,95.20
2018-06-24T02:36:35.502Z,95.20
2018-06-24T02:39:05.397Z,94.50
2018-06-24T02:41:33.034Z,94.70
2018-06-24T02:44:00.601Z,94.30
2018-06-24T02:46:28.164Z,94.70
2018-06-24T02:48:55.768Z,94.60
2018-06-24T02:51:23.316Z,95.10
2018-06-24T02:53:50.957Z,94.80
2018-06-24T02:56:18.570Z,95.00
2018-06-24T02:58:46.180Z,95.60
2018-06-24T03:01:13.769Z,95.60
2018-06-24T03:03:41.365Z,95.60
2018-06-24T03:06:09.434Z,95.70
2018-06-24T03:08:37.019Z,95.50
2018-06-24T03:11:04.622Z,95.60
2018-06-24T03:13:32.277Z,95.70
2018-06-24T03:16:00.543Z,95.80
2018-06-24T03:18:28.153Z,95.70
2018-06-24T03:20:55.713Z,95.50
2018-06-24T03:23:23.357Z,95.70
2018-06-24T03:25:51.254Z,95.90
2018-06-24T03:28:18.863Z,95.80
2018-06-24T03:30:46.452Z,95.90
2018-06-24T03:33:15.098Z,95.80
2018-06-24T03:35:42.714Z,95.90
2018-06-24T03:38:11.035Z,95.60
2018-06-24T03:40:39.265Z,95.90
2018-06-24T03:43:07.348Z,95.90
2018-06-24T03:45:35.792Z,96.00
2018-06-24T03:48:04.021Z,96.00
2018-06-24T03:50:31.690Z,95.70
2018-06-24T03:52:59.322Z,96.00
2018-06-24T03:55:26.902Z,95.60
2018-06-24T03:57:54.597Z,95.80
2018-06-24T04:00:22.320Z,95.60
2018-06-24T04:02:50.077Z,95.60
2018-06-24T04:05:17.677Z,95.00
2018-06-24T04:07:45.237Z,95.00
2018-06-24T04:10:12.841Z,94.90
2018-06-24T04:12:40.514Z,94.70
2018-06-24T04:15:08.110Z,95.00
2018-06-24T04:17:35.729Z,95.30
2018-06-24T04:20:03.360Z,95.50
2018-06-24T04:22:30.953Z,95.60
2018-06-24T04:24:58.549Z,95.60
2018-06-24T04:27:26.115Z,95.50
2018-06-24T04:29:53.681Z,95.70
2018-06-24T04:32:21.307Z,95.20
2018-06-24T04:34:48.905Z,95.20
2018-06-24T04:37:16.569Z,95.20
2018-06-24T04:39:44.141Z,95.20
2018-06-24T04:42:11.732Z,95.30
2018-06-24T04:44:39.347Z,95.20
2018-06-24T04:47:07.229Z,95.10
2018-06-24T04:49:34.952Z,95.00
2018-06-24T04:52:02.565Z,94.90
2018-06-24T04:54:30.157Z,95.10
2018-06-24T04:56:57.837Z,95.30
2018-06-24T04:59:25.565Z,94.90
2018-06-24T05:01:53.189Z,94.70
2018-06-24T05:04:20.767Z,94.40
2018-06-24T05:06:48.391Z,94.40
2018-06-24T05:09:16.242Z,94.60
2018-06-24T05:11:43.874Z,94.80
2018-06-24T05:14:11.458Z,94.30
2018-06-24T05:16:39.073Z,94.40
2018-06-24T05:19:07.341Z,94.30
2018-06-24T05:21:34.936Z,94.00
2018-06-24T05:24:02.521Z,94.00
2018-06-24T05:26:30.133Z,93.50
2018-06-24T05:28:57.691Z,93.40
2018-06-24T05:31:25.314Z,93.40
2018-06-24T05:33:52.893Z,93.50
2018-06-24T05:36:20.577Z,93.40
2018-06-24T05:38:48.301Z,93.20
2018-06-24T05:41:15.932Z,93.20
2018-06-24T05:43:43.498Z,93.10
2018-06-24T05:46:11.145Z,93.50
2018-06-24T05:48:38.765Z,92.90
2018-06-24T05:51:06.391Z,93.20
2018-06-24T05:53:34.021Z,93.30
2018-06-24T05:56:01.937Z,93.30
2018-06-24T05:58:29.581Z,93.30
2018-06-24T06:00:57.253Z,92.70
2018-06-24T06:03:25.186Z,92.90
2018-06-24T06:05:53.491Z,92.90
2018-06-24T06:08:21.097Z,92.60
2018-06-24T06:10:48.721Z,92.80
2018-06-24T06:13:16.293Z,92.80
2018-06-24T06:15:43.882Z,92.60
2018-06-24T06:18:13.165Z,91.60
2018-06-24T06:20:42.978Z,92.20
2018-06-24T06:23:10.661Z,92.10
2018-06-24T06:25:40.092Z,91.40
2018-06-24T06:28:07.778Z,91.30
2018-06-24T06:30:38.260Z,91.20
2018-06-24T06:33:05.903Z,90.90
2018-06-24T06:35:33.460Z,90.90
2018-06-24T06:38:03.041Z,90.80
2018-06-24T06:40:30.801Z,90.60
2018-06-24T06:42:58.983Z,90.20
2018-06-24T06:45:26.761Z,90.10
2018-06-24T06:47:56.076Z,89.30
2018-06-24T06:50:23.789Z,88.80
2018-06-24T06:52:51.342Z,88.50
2018-06-24T06:55:19.184Z,88.90
2018-06-24T06:57:46.894Z,88.50
2018-06-24T07:00:15.092Z,86.90
2018-06-24T07:02:43.337Z,86.90
2018-06-24T07:05:12.550Z,87.00
2018-06-24T07:07:40.968Z,86.30
2018-06-24T07:10:08.857Z,85.60
2018-06-24T07:12:37.049Z,83.80
2018-06-24T07:15:05.695Z,84.80
2018-06-24T07:17:33.740Z,85.00
2018-06-24T07:20:01.367Z,85.20
2018-06-24T07:22:29.581Z,84.90
2018-06-24T07:24:57.936Z,84.40
2018-06-24T07:27:26.124Z,83.30
2018-06-24T07:29:53.693Z,83.40
2018-06-24T07:32:21.301Z,83.20
2018-06-24T07:34:48.917Z,83.20
2018-06-24T07:37:16.542Z,83.60
2018-06-24T07:39:44.253Z,84.30
2018-06-24T07:42:12.110Z,83.60
2018-06-24T07:44:39.965Z,85.50
2018-06-24T07:47:07.719Z,83.70
2018-06-24T07:49:35.601Z,83.90
2018-06-24T07:52:05.365Z,84.00
2018-06-24T07:54:33.000Z,83.00
2018-06-24T07:57:00.647Z,83.80
2018-06-24T07:59:29.207Z,83.00
2018-06-24T08:01:56.881Z,83.10
2018-06-24T08:04:24.485Z,83.10
2018-06-24T08:06:52.129Z,82.70
2018-06-24T08:09:19.758Z,82.70
2018-06-24T08:11:48.379Z,82.80
2018-06-24T08:14:15.990Z,81.20
2018-06-24T08:16:43.570Z,81.50
2018-06-24T08:19:11.249Z,82.30
2018-06-24T08:21:38.986Z,82.90
2018-06-24T08:24:06.592Z,82.30
2018-06-24T08:26:34.370Z,82.20
2018-06-24T08:29:02.116Z,82.60
2018-06-24T08:31:31.716Z,82.90
2018-06-24T08:33:59.461Z,82.50
2018-06-24T08:36:27.658Z,82.50
2018-06-24T08:38:55.642Z,84.10
2018-06-24T08:41:24.417Z,84.30
2018-06-24T08:43:52.113Z,82.50
2018-06-24T08:46:19.734Z,82.00
2018-06-24T08:48:47.428Z,82.10
2018-06-24T08:51:15.180Z,82.00
2018-06-24T08:53:43.401Z,80.60
2018-06-24T08:56:11.058Z,81.40
2018-06-24T08:58:38.926Z,81.70
2018-06-24T09:01:06.801Z,82.20
2018-06-24T09:03:35.041Z,80.40
2018-06-24T09:08:30.400Z,79.20
2018-06-24T09:10:57.977Z,76.90
2018-06-24T09:13:25.877Z,76.50
2018-06-24T09:15:53.997Z,76.10
2018-06-24T09:18:22.020Z,76.70
2018-06-24T09:20:49.841Z,76.80
2018-06-24T09:23:17.693Z,75.50
2018-06-24T09:25:45.419Z,75.70
2018-06-24T09:28:13.053Z,76.60
2018-06-24T09:30:40.649Z,75.00
2018-06-24T09:33:08.270Z,74.70
2018-06-24T09:35:36.061Z,73.90
2018-06-24T09:38:03.752Z,74.30
2018-06-24T09:40:31.692Z,72.70
2018-06-24T09:42:59.580Z,73.10
2018-06-24T09:47:54.652Z,72.30
2018-06-24T09:50:22.980Z,71.70
2018-06-24T09:52:50.551Z,71.10
2018-06-24T09:55:18.165Z,72.20
2018-06-24T09:57:45.809Z,70.60
2018-06-24T10:00:19.828Z,67.60
2018-06-24T10:02:47.508Z,68.30
2018-06-24T10:05:16.158Z,68.60
2018-06-24T10:07:44.818Z,66.70
2018-06-24T10:10:12.505Z,68.70
2018-06-24T10:12:40.469Z,67.10
2018-06-24T10:15:08.460Z,69.90
2018-06-24T10:17:36.108Z,69.30
2018-06-24T10:20:04.071Z,68.80
2018-06-24T10:22:31.632Z,68.30
2018-06-24T10:24:59.362Z,69.10
2018-06-24T10:27:26.918Z,68.30
2018-06-24T10:29:54.593Z,69.30
2018-06-24T10:32:22.177Z,68.40
2018-06-24T10:34:49.805Z,68.50
2018-06-24T10:37:17.406Z,64.40
2018-06-24T10:39:45.313Z,62.80
2018-06-24T10:42:12.877Z,64.00
2018-06-24T10:44:40.580Z,65.40
2018-06-24T10:47:08.158Z,65.20
2018-06-24T10:49:35.761Z,64.90
2018-06-24T10:52:03.373Z,66.10
2018-06-24T10:54:31.033Z,64.50
2018-06-24T10:56:58.636Z,62.40
2018-06-24T10:59:26.199Z,61.20
2018-06-24T11:01:53.837Z,64.40
2018-06-24T11:04:21.377Z,61.80
2018-06-24T11:06:49.906Z,63.50
2018-06-24T11:09:17.618Z,62.60
2018-06-24T11:11:45.186Z,60.30
2018-06-24T11:14:12.985Z,60.00
2018-06-24T11:16:40.883Z,59.00
2018-06-24T11:19:08.943Z,59.20
2018-06-24T11:21:36.513Z,60.30
2018-06-24T11:24:04.193Z,60.50
2018-06-24T11:26:32.397Z,61.20
2018-06-24T11:29:00.782Z,60.30
2018-06-24T11:33:55.905Z,58.80
2018-06-24T11:36:23.595Z,60.20
2018-06-24T11:38:54.520Z,59.50
2018-06-24T11:41:25.043Z,57.60
2018-06-24T11:43:54.745Z,58.00
2018-06-24T11:46:24.259Z,58.00
2018-06-24T11:48:52.947Z,57.90
2018-06-24T11:51:20.572Z,59.00
2018-06-24T11:53:48.186Z,57.00
2018-06-24T11:56:16.069Z,55.80
2018-06-24T11:58:43.969Z,56.60
2018-06-24T12:01:11.994Z,56.10
2018-06-24T12:06:07.793Z,55.40
2018-06-24T12:08:35.377Z,54.10
2018-06-24T12:11:03.065Z,54.80
2018-06-24T12:13:31.078Z,56.30
2018-06-24T12:15:59.344Z,55.30
2018-06-24T12:18:26.925Z,56.30
2018-06-24T12:20:54.497Z,57.00
2018-06-24T12:23:22.082Z,56.10
2018-06-24T12:25:49.697Z,54.10
2018-06-24T12:28:17.281Z,53.90
2018-06-24T12:30:45.117Z,52.80
2018-06-24T12:33:12.665Z,52.70
2018-06-24T12:35:41.129Z,52.40
2018-06-24T12:38:09.054Z,49.70
2018-06-24T12:40:36.686Z,51.10
2018-06-24T12:43:04.937Z,51.70
2018-06-24T12:45:33.257Z,51.60
2018-06-24T12:48:01.125Z,50.20
2018-06-24T12:50:29.032Z,50.10
2018-06-24T12:52:57.118Z,49.60
2018-06-24T12:55:24.719Z,48.40
2018-06-24T12:57:53.309Z,46.60
2018-06-24T13:00:21.292Z,47.70
2018-06-24T13:02:48.536Z,47.70
2018-06-24T13:05:16.569Z,47.40
2018-06-24T13:07:44.486Z,47.70
2018-06-24T13:10:12.334Z,48.90
2018-06-24T13:12:39.993Z,47.60
2018-06-24T13:15:07.706Z,47.00
2018-06-24T13:17:35.409Z,47.40
2018-06-24T13:20:03.194Z,47.00
2018-06-24T13:22:31.027Z,47.90
2018-06-24T13:24:58.943Z,46.20
2018-06-24T13:27:27.124Z,47.50
2018-06-24T13:29:54.838Z,47.50
2018-06-24T13:32:53.350Z,46.10
2018-06-24T13:35:22.173Z,45.00
2018-06-24T13:37:50.177Z,46.60
2018-06-24T13:40:17.825Z,46.40
2018-06-24T13:42:45.841Z,46.90
2018-06-24T13:45:13.785Z,49.40
2018-06-24T13:47:41.506Z,49.20
2018-06-24T13:50:09.113Z,49.40
2018-06-24T13:52:37.376Z,49.30
2018-06-24T13:55:05.082Z,51.60
2018-06-24T13:57:32.697Z,49.60
2018-06-24T14:00:00.966Z,50.50
2018-06-24T14:02:28.653Z,49.10
2018-06-24T14:04:57.404Z,49.40
2018-06-24T14:07:25.118Z,49.00
2018-06-24T14:09:53.686Z,49.70
2018-06-24T14:12:22.090Z,48.50
2018-06-24T14:14:49.937Z,49.20
2018-06-24T14:17:17.900Z,50.10
2018-06-24T14:19:45.818Z,48.90
2018-06-24T14:22:13.989Z,50.20
2018-06-24T14:24:41.618Z,50.30
2018-06-24T14:27:09.282Z,50.00
2018-06-24T14:29:36.925Z,50.80
2018-06-24T14:32:04.563Z,49.20
2018-06-24T14:34:33.833Z,49.50
2018-06-24T14:37:01.633Z,49.80
2018-06-24T14:39:29.217Z,48.20
2018-06-24T14:41:56.847Z,47.90
2018-06-24T14:44:24.905Z,46.40
2018-06-24T14:46:53.265Z,48.50
2018-06-24T14:49:20.876Z,49.10
2018-06-24T14:51:48.504Z,51.20
2018-06-24T14:54:16.086Z,52.80
2018-06-24T14:56:43.652Z,53.80
2018-06-24T14:59:11.329Z,53.90
2018-06-24T15:01:39.293Z,55.60
2018-06-24T15:04:06.853Z,55.70
2018-06-24T15:06:34.598Z,55.80
2018-06-24T15:09:02.457Z,54.90
2018-06-24T15:11:30.042Z,54.70
2018-06-24T15:13:57.690Z,56.20
2018-06-24T15:16:25.569Z,56.40
2018-06-24T15:18:53.281Z,57.30
2018-06-24T15:21:20.844Z,57.40
2018-06-24T15:23:48.504Z,58.10
2018-06-24T15:26:19.889Z,57.80
2018-06-24T15:28:47.494Z,57.80
2018-06-24T15:31:15.394Z,56.90
2018-06-24T15:33:43.022Z,57.50
2018-06-24T15:36:10.612Z,57.20
2018-06-24T15:38:38.260Z,56.90
2018-06-24T15:41:06.092Z,58.50
2018-06-24T15:43:34.496Z,57.70
2018-06-24T15:46:02.134Z,59.20
2018-06-24T15:48:29.725Z,58.60
2018-06-24T15:50:57.337Z,59.00
2018-06-24T15:53:25.005Z,58.80
2018-06-24T15:55:52.685Z,60.10
2018-06-24T15:58:20.277Z,59.70
2018-06-24T16:00:47.898Z,59.50
2018-06-24T16:03:15.552Z,60.20
2018-06-24T16:05:43.129Z,61.20
2018-06-24T16:08:10.746Z,61.00
2018-06-24T16:10:38.453Z,61.50
2018-06-24T16:13:06.357Z,61.20
2018-06-24T16:15:34.103Z,63.20
2018-06-24T16:18:01.833Z,62.30
2018-06-24T16:20:29.581Z,62.40
2018-06-24T16:22:57.342Z,63.70
2018-06-24T16:25:24.936Z,63.50
2018-06-24T16:27:52.824Z,64.10
2018-06-24T16:30:20.421Z,64.40
2018-06-24T16:32:48.195Z,64.60
2018-06-24T16:35:17.226Z,64.80
2018-06-24T16:37:46.534Z,65.00
2018-06-24T16:40:14.225Z,65.70
2018-06-24T16:42:41.838Z,66.20
2018-06-24T16:45:09.509Z,66.30
2018-06-24T16:47:37.192Z,67.30
2018-06-24T16:50:04.866Z,67.50
2018-06-24T16:52:32.589Z,68.20
2018-06-24T16:55:00.235Z,68.50
2018-06-24T16:57:28.158Z,68.70
2018-06-24T16:59:56.044Z,68.50
2018-06-24T17:02:23.664Z,67.60
2018-06-24T17:04:51.442Z,68.10
2018-06-24T17:07:19.281Z,68.20
2018-06-24T17:09:46.937Z,68.40
2018-06-24T17:12:14.569Z,68.70
2018-06-24T17:14:42.173Z,68.70
2018-06-24T17:17:09.876Z,69.00
2018-06-24T17:19:37.525Z,69.20
2018-06-24T17:22:05.178Z,69.30
2018-06-24T17:24:32.781Z,69.80
2018-06-24T17:27:00.414Z,70.20
2018-06-24T17:29:28.162Z,69.50
2018-06-24T17:31:55.921Z,70.10
2018-06-24T17:34:23.545Z,71.10
2018-06-24T17:36:51.197Z,69.80
2018-06-24T17:39:18.817Z,69.90
2018-06-24T17:41:46.550Z,70.40
2018-06-24T17:44:14.521Z,69.80
2018-06-24T17:46:42.532Z,69.40
2018-06-24T17:49:10.211Z,69.60
2018-06-24T17:51:37.849Z,70.20
2018-06-24T17:54:05.791Z,70.80
2018-06-24T17:56:33.642Z,71.20
2018-06-24T17:59:01.457Z,70.70
2018-06-24T18:01:29.249Z,70.90
2018-06-24T18:03:56.890Z,71.50
2018-06-24T18:06:24.529Z,71.70
2018-06-24T18:08:52.141Z,71.90
2018-06-24T18:11:20.216Z,72.40
2018-06-24T18:13:47.801Z,72.70
2018-06-24T18:16:15.414Z,73.20
2018-06-24T18:18:43.310Z,73.50
2018-06-24T18:21:10.915Z,73.40
2018-06-24T18:23:38.513Z,73.50
2018-06-24T18:26:06.423Z,74.10
2018-06-24T18:28:34.275Z,74.60
2018-06-24T18:31:01.969Z,75.00
2018-06-24T18:33:29.590Z,77.10
2018-06-24T18:35:57.310Z,79.00
2018-06-24T18:38:25.304Z,80.30
2018-06-24T18:40:52.905Z,81.20
2018-06-24T18:43:20.985Z,81.00
2018-06-24T18:45:48.781Z,81.40
2018-06-24T18:48:16.397Z,80.90
2018-06-24T18:50:44.045Z,81.00
2018-06-24T18:53:12.009Z,80.70
2018-06-24T18:55:39.657Z,81.00
2018-06-24T18:58:07.589Z,82.10
2018-06-24T19:00:35.525Z,82.80
2018-06-24T19:03:06.041Z,83.30
2018-06-24T19:05:34.233Z,84.40
2018-06-24T19:08:02.277Z,84.70
2018-06-24T19:10:30.547Z,84.70
2018-06-24T19:12:59.056Z,84.70
2018-06-24T19:15:27.085Z,86.00
2018-06-24T19:17:55.593Z,85.50
2018-06-24T19:20:23.329Z,85.80
2018-06-24T19:22:51.227Z,85.00
2018-06-24T19:25:19.034Z,83.50
2018-06-24T19:27:46.737Z,82.60
2018-06-24T19:30:14.744Z,82.80
2018-06-24T19:32:42.385Z,82.50
2018-06-24T19:35:10.137Z,83.20
2018-06-24T19:37:38.150Z,85.20
2018-06-24T19:40:05.994Z,87.50
2018-06-24T19:42:33.688Z,89.00
2018-06-24T19:45:01.943Z,90.10
2018-06-24T19:47:30.586Z,90.80
2018-06-24T19:49:58.269Z,90.90
2018-06-24T19:52:25.869Z,90.90
2018-06-24T19:54:53.449Z,90.90
2018-06-24T19:57:21.109Z,90.90
2018-06-24T19:59:49.664Z,90.90
2018-06-24T20:02:17.330Z,91.40
2018-06-24T20:04:44.932Z,90.90
2018-06-24T20:07:12.575Z,91.20
2018-06-24T20:09:40.349Z,90.80
2018-06-24T20:12:09.113Z,90.50
2018-06-24T20:14:37.093Z,90.30
2018-06-24T20:17:05.122Z,90.00
2018-06-24T20:19:32.742Z,90.30
2018-06-24T20:22:00.391Z,90.50
2018-06-24T20:24:28.081Z,90.60
2018-06-24T20:26:55.645Z,90.60
2018-06-24T20:29:23.546Z,90.50
2018-06-24T20:31:51.789Z,90.00
2018-06-24T20:34:19.489Z,90.00
2018-06-24T20:36:47.287Z,90.00
2018-06-24T20:39:14.880Z,90.10
2018-06-24T20:41:42.513Z,90.00
2018-06-24T20:44:10.217Z,90.00
2018-06-24T20:46:37.910Z,90.10
2018-06-24T20:49:05.702Z,90.30
2018-06-24T20:51:33.305Z,90.40
2018-06-24T20:54:00.886Z,90.10
2018-06-24T20:56:28.512Z,90.10
2018-06-24T20:58:57.580Z,90.40
2018-06-24T21:01:25.377Z,90.50
2018-06-24T21:03:53.312Z,90.30
2018-06-24T21:06:20.985Z,90.20
2018-06-24T21:08:48.656Z,90.10
2018-06-24T21:11:16.290Z,90.40
2018-06-24T21:13:44.925Z,90.30
2018-06-24T21:16:12.559Z,90.40
2018-06-24T21:18:40.222Z,90.20
2018-06-24T21:21:07.946Z,91.30
2018-06-24T21:23:35.577Z,91.60
2018-06-24T21:26:03.296Z,92.00
2018-06-24T21:28:31.037Z,92.60
2018-06-24T21:30:58.907Z,93.30
2018-06-24T21:33:26.868Z,94.30
2018-06-24T21:35:56.469Z,94.70
2018-06-24T21:38:24.097Z,94.90
2018-06-24T21:40:51.721Z,95.00
2018-06-24T21:43:19.336Z,95.10
2018-06-24T21:45:46.925Z,95.50
2018-06-24T21:48:14.558Z,95.70
2018-06-24T21:50:42.193Z,95.20
2018-06-24T21:53:09.854Z,94.90
2018-06-24T21:55:37.555Z,94.90
2018-06-24T21:58:05.993Z,94.60
2018-06-24T22:00:33.651Z,94.30
2018-06-24T22:03:01.306Z,94.40
2018-06-24T22:05:28.935Z,94.40
2018-06-24T22:07:56.830Z,94.60
2018-06-24T22:10:24.414Z,94.70
2018-06-24T22:12:52.046Z,94.80
2018-06-24T22:15:19.728Z,94.90
2018-06-24T22:17:47.493Z,94.80
2018-06-24T22:20:15.117Z,95.00
2018-06-24T22:22:42.730Z,95.90
2018-06-24T22:26:13.266Z,95.70
2018-06-24T22:28:40.905Z,95.50
2018-06-24T22:31:09.328Z,95.80
2018-06-24T22:33:36.945Z,95.40
2018-06-24T22:36:04.593Z,95.20
2018-06-24T22:38:32.210Z,95.90
2018-06-24T22:40:59.880Z,95.70
2018-06-24T22:43:27.430Z,96.00
2018-06-24T22:45:55.173Z,95.70
2018-06-24T22:48:22.809Z,95.70
2018-06-24T22:50:50.546Z,95.90
2018-06-24T22:53:18.472Z,95.60
2018-06-24T22:55:46.100Z,95.50
2018-06-24T22:58:13.709Z,95.80
2018-06-24T23:00:41.490Z,95.70
2018-06-24T23:03:09.174Z,95.50
2018-06-24T23:05:36.801Z,95.80
2018-06-24T23:08:04.536Z,95.70
2018-06-24T23:10:32.270Z,95.50
2018-06-24T23:13:00.154Z,95.20
2018-06-24T23:15:27.766Z,95.40
2018-06-24T23:17:55.406Z,95.30
2018-06-24T23:20:23.089Z,95.40
2018-06-24T23:22:51.073Z,95.20
2018-06-24T23:25:18.643Z,95.50
2018-06-24T23:27:46.301Z,95.10
2018-06-24T23:30:13.898Z,95.20
2018-06-24T23:32:41.621Z,95.00
2018-06-24T23:35:09.296Z,95.00
2018-06-24T23:37:37.098Z,95.10
2018-06-24T23:40:04.740Z,94.60
2018-06-24T23:42:32.414Z,94.50
2018-06-24T23:45:00.221Z,94.60
2018-06-24T23:47:27.865Z,94.80
2018-06-24T23:49:56.345Z,94.80
2018-06-24T23:52:23.995Z,94.80
2018-06-24T23:54:51.612Z,94.70
2018-06-24T23:57:19.276Z,94.60
2018-06-24T23:59:46.843Z,94.80
